Pagrindinis puslapis
METAR-TAF:

METAR-TAF

Oro uostai :

Kansai, Japonija

platuma: 34-25N, ilguma: 135-15E, Aukštis: 5 m

Dabartinis oras

Ataskaita buvo paskelbta 20 minutes, ne 09:00 UTC
Vėjas 3 kt iš Pietų, svyruoja nuo Rytų ir Pietų/Pietvakarių
Temperatūra 11°C
Drėgmė 66%
Slėgis 1024 hPa
Matomumas 10 km arba daugiau
nėra debesų žemiau 1500 m ir nėra kamuolinių lietaus debesų

METAR: RJBB 240900Z 18003KT 090V210 CAVOK 11/05 Q1024 NOSIG

Laikas: 18:20 (09:20 UTC)

Prognozė

Ataskaita buvo paskelbta 4 valandos ir 11 minutes, ne 05:09 UTC
Prognozė galioja nuo 24 metu 06 UTC su 25 metu 12 UTC
Vėjas 4 kt iš Pietų/Pietvakarių
Matomumas 10 km arba daugiau
nėra debesų žemiau 1500 m ir nėra kamuolinių lietaus debesų
Tapsmas
nuo 24 metu 10 UTC su 24 metu 12 UTC
Vėjas 5 kt iš Rytų/Pietryčių
Tapsmas
nuo 25 metu 03 UTC su 25 metu 06 UTC
Vėjas 16 kt iš Pietų/Pietvakarių

TAF: RJBB 240509Z 2406/2512 20004KT CAVOK BECMG 2410/2412 12005KT BECMG 2503/2506 20016KT

Orai ataskaitas ir orų prognozės (METAR, TAF).

turimą stotys yra geltonos ir raudonos taškus žemėlapyje.

Perkelti pele per norėdami pamatyti stoties vardą.

Tada spustelėkite, norėdami matyti oro stebėjimo ir prognozės.

Norėdami pakeisti žemėlapį: spustelėkite ant žalios mygtukų su juodo kryžiaus žemyn,; žalią mygtuką su brūkšneliu, jei norite nutolinti; arba žalių rodyklių gretimoms žemėlapius.


METAR-TAF: